Nellysford, VA (22958)

4:59 AM EST on February 09, 2016 (GMT -0500)
Spruce Creek Park | | Change Station
CLOSE
Current Station
Personal Weather Station
Location: Nellysford, VA
Elevation: 843 ft
Nearby Weather Stations

Elev 843 ft 37.89 °N, 78.90 °W | Updated 4 minutes ago

Mostly Cloudy
Mostly Cloudy
32.0 °F
Feels Like 32 °F
N
0.0
Wind Variable Wind from NE
Gusts 2.0 mph

Today
High -- | Low -- °F
--% Chance of Precip.
Yesterday
High -- | Low -- °F
Precip. -- in
Pressure 29.54 in
Visibility 7.0 miles
Clouds Overcast 4500 ft
Windchill 32 °F
Dew Point 18 °F
Humidity 56%
Rainfall 0.00 in
Snow Depth Not available.
7:12 AM 5:47 PM
New Moon, 1% visible
METAR KSHD 090935Z AUTO 00000KT 7SM -SN OVC045 02/01 A2954 RMK AO2 T00220009
Pressure 29.54 in
Visibility 7.0 miles
Clouds Overcast 4500 ft
Windchill 32 °F
Dew Point 18 °F
Humidity 56%
Rainfall 0.00 in
Snow Depth Not available.
7:12 AM 5:47 PM
New Moon, 1% visible
METAR KSHD 090935Z AUTO 00000KT 7SM -SN OVC045 02/01 A2954 RMK AO2 T00220009

10-Day Weather Forecast

Almanac

Astronomy

Feb. 09, 2016 Rise Set
Actual Time
Civil Twilight
Nautical Twilight
Astronomical Twilight
Moon
Length of Visible Light
Length of Day
Tomorrow will be .
, % of the Moon is Illuminated

Today's Extremes

State Highs State Lows

Community

WunderPhotos

Upload Photos

1,891,565 photos uploaded!

WunderBlog® & News

Nearby

Air Quality

  Air Quality AQ Index Pollutant
Not available.

Snow Depth

Station Depth Elevation

Earthquake Activity

City Distance Mag. Time & Date
Minimum magnitude displayed is 2.5.

Coastal Water Temperatures

Place Temperature

Stations

Nearby Weather Stations

Station Location Temp. Windchill Dew Point Humidity Wind Precip. Elev Updated Type
                   

Watches & Warnings

There are currently no watches in effect.